createdAt,value
2019-03-27T00:00:10.061Z,100489.78
2019-03-27T00:02:38.941Z,100497.60
2019-03-27T00:05:08.103Z,100500.23
2019-03-27T00:07:36.956Z,100500.23
2019-03-27T00:10:08.541Z,100510.25
2019-03-27T00:12:37.900Z,100516.80
2019-03-27T00:15:13.466Z,100517.25
2019-03-27T00:17:41.223Z,100522.89
2019-03-27T00:20:10.983Z,100515.06
2019-03-27T00:22:39.802Z,100519.42
2019-03-27T00:25:09.060Z,100516.38
2019-03-27T00:27:37.819Z,100517.23
2019-03-27T00:30:11.262Z,100517.69
2019-03-27T00:32:40.009Z,100523.34
2019-03-27T00:35:09.585Z,100535.55
2019-03-27T00:37:38.343Z,100536.86
2019-03-27T00:40:08.501Z,100533.82
2019-03-27T00:42:37.242Z,100524.66
2019-03-27T00:45:08.222Z,100530.75
2019-03-27T00:47:37.003Z,100529.88
2019-03-27T00:50:08.304Z,100527.28
2019-03-27T00:52:37.201Z,100531.18
2019-03-27T00:55:07.270Z,100532.50
2019-03-27T00:57:35.978Z,100529.89
2019-03-27T01:00:10.746Z,100526.84
2019-03-27T01:02:39.542Z,100523.78
2019-03-27T01:05:08.370Z,100518.98
2019-03-27T01:07:37.204Z,100520.28
2019-03-27T01:10:05.962Z,100519.86
2019-03-27T01:12:34.767Z,100525.09
2019-03-27T01:15:03.932Z,100524.66
2019-03-27T01:17:32.702Z,100527.27
2019-03-27T01:20:01.490Z,100536.84
2019-03-27T01:22:30.323Z,100538.13
2019-03-27T01:24:59.105Z,100534.66
2019-03-27T01:27:27.890Z,100535.50
2019-03-27T01:29:56.761Z,100535.05
2019-03-27T01:32:25.620Z,100542.48
2019-03-27T01:34:54.362Z,100541.59
2019-03-27T01:37:23.181Z,100544.23
2019-03-27T01:39:51.942Z,100542.94
2019-03-27T01:42:20.702Z,100546.88
2019-03-27T01:44:49.544Z,100544.67
2019-03-27T01:47:18.285Z,100550.77
2019-03-27T01:49:47.021Z,100548.56
2019-03-27T01:52:15.928Z,100548.12
2019-03-27T01:54:44.702Z,100559.45
2019-03-27T01:57:13.501Z,100562.94
2019-03-27T01:59:42.302Z,100565.98
2019-03-27T02:02:11.013Z,100569.03
2019-03-27T02:04:39.848Z,100571.63
2019-03-27T02:07:08.631Z,100573.35
2019-03-27T02:09:37.369Z,100577.68
2019-03-27T02:12:06.103Z,100574.19
2019-03-27T02:14:34.891Z,100578.07
2019-03-27T02:17:03.631Z,100579.33
2019-03-27T02:19:32.366Z,100579.77
2019-03-27T02:22:01.143Z,100578.40
2019-03-27T02:24:29.876Z,100574.86
2019-03-27T02:26:58.811Z,100587.38
2019-03-27T02:29:27.606Z,100583.41
2019-03-27T02:31:56.339Z,100596.11
2019-03-27T02:34:25.081Z,100599.23
2019-03-27T02:36:53.866Z,100591.50
2019-03-27T02:39:22.592Z,100595.47
2019-03-27T02:41:51.318Z,100593.97
2019-03-27T02:44:20.114Z,100590.28
2019-03-27T02:46:48.877Z,100594.39
2019-03-27T02:49:17.613Z,100597.14
2019-03-27T02:51:46.397Z,100604.72
2019-03-27T02:54:15.135Z,100608.23
2019-03-27T02:56:43.863Z,100611.25
2019-03-27T02:59:12.647Z,100611.25
2019-03-27T03:01:41.371Z,100602.45
2019-03-27T03:04:10.114Z,100612.86
2019-03-27T03:06:38.927Z,100613.96
2019-03-27T03:09:08.081Z,100622.59
2019-03-27T03:11:36.842Z,100623.49
2019-03-27T03:14:05.689Z,100627.32
2019-03-27T03:16:42.091Z,100626.72
2019-03-27T03:19:04.924Z,100628.82
2019-03-27T03:21:33.799Z,100634.45
2019-03-27T03:24:02.537Z,100637.68
2019-03-27T03:26:31.283Z,100641.14
2019-03-27T03:29:00.081Z,100631.86
2019-03-27T03:31:28.805Z,100637.61
2019-03-27T03:33:57.553Z,100639.73
2019-03-27T03:36:26.338Z,100632.80
2019-03-27T03:38:55.108Z,100642.16
2019-03-27T03:41:23.852Z,100640.82
2019-03-27T03:43:52.677Z,100646.14
2019-03-27T03:46:21.422Z,100648.52
2019-03-27T03:48:50.273Z,100654.36
2019-03-27T03:51:19.057Z,100654.86
2019-03-27T03:53:48.229Z,100654.08
2019-03-27T03:56:17.564Z,100652.86
2019-03-27T03:58:48.351Z,100653.59
2019-03-27T04:01:19.999Z,100657.84
2019-03-27T04:03:49.442Z,100653.55
2019-03-27T04:06:18.337Z,100654.59
2019-03-27T04:08:47.081Z,100662.94
2019-03-27T04:11:15.827Z,100662.60
2019-03-27T04:13:44.603Z,100658.09
2019-03-27T04:16:13.342Z,100653.72
2019-03-27T04:18:42.095Z,100662.03
2019-03-27T04:21:10.922Z,100660.13
2019-03-27T04:23:39.657Z,100665.48
2019-03-27T04:26:10.461Z,100662.67
2019-03-27T04:28:38.902Z,100667.37
2019-03-27T04:31:07.635Z,100670.20
2019-03-27T04:33:36.381Z,100676.97
2019-03-27T04:36:05.196Z,100671.59
2019-03-27T04:38:33.935Z,100672.98
2019-03-27T04:41:02.677Z,100672.94
2019-03-27T04:43:31.472Z,100681.24
2019-03-27T04:46:00.221Z,100680.84
2019-03-27T04:48:28.960Z,100681.70
2019-03-27T04:50:57.681Z,100687.92
2019-03-27T04:53:26.497Z,100686.10
2019-03-27T04:55:55.271Z,100685.41
2019-03-27T04:58:24.105Z,100680.66
2019-03-27T05:00:52.827Z,100688.78
2019-03-27T05:03:21.572Z,100693.63
2019-03-27T05:05:50.382Z,100704.42
2019-03-27T05:08:19.121Z,100707.41
2019-03-27T05:10:47.871Z,100700.91
2019-03-27T05:13:16.671Z,100706.02
2019-03-27T05:15:45.417Z,100708.80
2019-03-27T05:18:14.152Z,100718.25
2019-03-27T05:20:42.946Z,100711.55
2019-03-27T05:23:11.687Z,100706.95
2019-03-27T05:25:40.453Z,100709.09
2019-03-27T05:28:09.216Z,100711.78
2019-03-27T05:30:37.957Z,100717.34
2019-03-27T05:33:06.703Z,100720.34
2019-03-27T05:35:35.508Z,100720.03
2019-03-27T05:38:04.255Z,100727.42
2019-03-27T05:40:33.182Z,100726.55
2019-03-27T05:43:02.007Z,100721.34
2019-03-27T05:45:30.721Z,100719.41
2019-03-27T05:48:00.153Z,100728.17
2019-03-27T05:50:29.021Z,100742.18
2019-03-27T05:52:57.767Z,100738.08
2019-03-27T05:55:26.776Z,100746.03
2019-03-27T05:57:55.677Z,100746.47
2019-03-27T06:00:24.422Z,100750.11
2019-03-27T06:02:53.146Z,100743.78
2019-03-27T06:05:21.936Z,100747.47
2019-03-27T06:07:50.666Z,100751.11
2019-03-27T06:10:19.382Z,100756.03
2019-03-27T06:12:48.166Z,100759.13
2019-03-27T06:15:16.893Z,100764.36
2019-03-27T06:17:45.617Z,100769.62
2019-03-27T06:20:14.516Z,100764.88
2019-03-27T06:22:43.299Z,100763.64
2019-03-27T06:25:12.072Z,100773.79
2019-03-27T06:27:40.853Z,100771.48
2019-03-27T06:30:10.796Z,100765.14
2019-03-27T06:32:39.519Z,100777.40
2019-03-27T06:35:08.796Z,100779.66
2019-03-27T06:37:37.543Z,100783.43
2019-03-27T06:40:07.498Z,100787.11
2019-03-27T06:42:36.376Z,100781.62
2019-03-27T06:45:06.841Z,100777.34
2019-03-27T06:47:35.588Z,100779.62
2019-03-27T06:50:05.381Z,100784.06
2019-03-27T06:52:34.121Z,100780.17
2019-03-27T06:55:02.880Z,100776.31
2019-03-27T06:57:31.708Z,100785.05
2019-03-27T07:00:00.420Z,100789.05
2019-03-27T07:02:29.171Z,100786.89
2019-03-27T07:04:59.967Z,100789.95
2019-03-27T07:07:28.712Z,100784.73
2019-03-27T07:09:57.458Z,100792.22
2019-03-27T07:12:26.260Z,100796.56
2019-03-27T07:14:55.036Z,100805.73
2019-03-27T07:17:23.732Z,100797.46
2019-03-27T07:19:52.531Z,100807.94
2019-03-27T07:22:21.272Z,100804.47
2019-03-27T07:24:50.026Z,100801.39
2019-03-27T07:27:18.851Z,100813.64
2019-03-27T07:29:47.554Z,100813.20
2019-03-27T07:32:16.278Z,100814.95
2019-03-27T07:34:45.056Z,100818.47
2019-03-27T07:37:13.803Z,100826.75
2019-03-27T07:39:42.511Z,100824.58
2019-03-27T07:42:11.313Z,100830.70
2019-03-27T07:44:40.052Z,100836.80
2019-03-27T07:47:08.782Z,100836.38
2019-03-27T07:49:37.596Z,100832.45
2019-03-27T07:52:06.331Z,100828.44
2019-03-27T07:54:35.076Z,100827.09
2019-03-27T07:57:03.933Z,100840.18
2019-03-27T07:59:32.661Z,100832.24
2019-03-27T08:02:01.432Z,100839.22
2019-03-27T08:04:30.260Z,100840.56
2019-03-27T08:06:58.977Z,100840.89
2019-03-27T08:09:27.722Z,100837.80
2019-03-27T08:11:56.521Z,100840.48
2019-03-27T08:14:28.158Z,100843.11
2019-03-27T08:16:57.013Z,100840.87
2019-03-27T08:19:25.827Z,100845.23
2019-03-27T08:21:54.552Z,100847.00
2019-03-27T08:24:23.291Z,100851.58
2019-03-27T08:26:52.158Z,100852.45
2019-03-27T08:29:20.897Z,100860.27
2019-03-27T08:31:49.632Z,100858.48
2019-03-27T08:34:18.522Z,100849.20
2019-03-27T08:36:47.297Z,100845.48
2019-03-27T08:39:16.032Z,100852.84
2019-03-27T08:41:44.837Z,100854.14
2019-03-27T08:44:13.572Z,100850.66
2019-03-27T08:46:42.356Z,100848.95
2019-03-27T08:49:21.731Z,100853.38
2019-03-27T08:51:41.732Z,100856.01
2019-03-27T08:54:10.538Z,100858.78
2019-03-27T08:56:39.392Z,100850.56
2019-03-27T08:59:08.116Z,100851.34
2019-03-27T09:01:36.838Z,100852.91
2019-03-27T09:04:05.635Z,100852.87
2019-03-27T09:06:34.443Z,100854.04
2019-03-27T09:09:03.886Z,100857.86
2019-03-27T09:11:32.667Z,100853.91
2019-03-27T09:14:01.406Z,100848.52
2019-03-27T09:16:31.673Z,100854.47
2019-03-27T09:19:00.467Z,100846.86
2019-03-27T09:21:29.231Z,100854.59
2019-03-27T09:23:57.946Z,100853.02
2019-03-27T09:26:26.713Z,100859.75
2019-03-27T09:28:55.487Z,100855.36
2019-03-27T09:31:24.286Z,100860.60
2019-03-27T09:33:53.022Z,100855.45
2019-03-27T09:36:21.757Z,100856.96
2019-03-27T09:38:50.528Z,100860.75
2019-03-27T09:41:21.436Z,100863.17
2019-03-27T09:43:49.782Z,100874.55
2019-03-27T09:46:18.517Z,100878.36
2019-03-27T09:48:47.246Z,100870.23
2019-03-27T09:51:16.015Z,100875.34
2019-03-27T09:53:44.753Z,100875.97
2019-03-27T09:56:19.228Z,100871.52
2019-03-27T09:58:43.997Z,100872.47
2019-03-27T10:01:12.742Z,100884.32
2019-03-27T10:03:41.497Z,100871.58
2019-03-27T10:06:10.268Z,100877.08
2019-03-27T10:08:39.102Z,100874.38
2019-03-27T10:11:07.840Z,100872.99
2019-03-27T10:13:37.808Z,100868.94
2019-03-27T10:16:06.827Z,100868.56
2019-03-27T10:18:36.257Z,100871.13
2019-03-27T10:21:05.056Z,100873.23
2019-03-27T10:23:33.796Z,100877.98
2019-03-27T10:26:04.137Z,100879.31
2019-03-27T10:28:32.909Z,100887.20
2019-03-27T10:31:01.675Z,100868.23
2019-03-27T10:33:30.497Z,100872.61
2019-03-27T10:35:59.232Z,100872.99
2019-03-27T10:38:28.725Z,100869.47
2019-03-27T10:40:57.532Z,100872.04
2019-03-27T10:43:26.278Z,100872.28
2019-03-27T10:45:55.170Z,100866.73
2019-03-27T10:48:23.866Z,100869.83
2019-03-27T10:50:52.633Z,100862.64
2019-03-27T10:53:21.428Z,100859.02
2019-03-27T10:55:50.191Z,100872.67
2019-03-27T10:58:18.993Z,100855.58
2019-03-27T11:00:47.744Z,100867.73
2019-03-27T11:03:16.491Z,100865.34
2019-03-27T11:05:45.262Z,100867.31
2019-03-27T11:08:14.022Z,100875.13
2019-03-27T11:10:42.832Z,100863.70
2019-03-27T11:13:11.563Z,100858.47
2019-03-27T11:15:40.314Z,100863.04
2019-03-27T11:18:10.181Z,100851.09
2019-03-27T11:20:40.378Z,100851.47
2019-03-27T11:23:09.146Z,100857.45
2019-03-27T11:25:37.802Z,100847.20
2019-03-27T11:28:06.621Z,100843.59
2019-03-27T11:30:38.905Z,100850.67
2019-03-27T11:33:07.950Z,100846.35
2019-03-27T11:35:36.722Z,100849.95
2019-03-27T11:38:05.787Z,100852.64
2019-03-27T11:40:34.562Z,100853.70
2019-03-27T11:43:03.313Z,100854.67
2019-03-27T11:45:32.066Z,100850.75
2019-03-27T11:48:00.840Z,100840.11
2019-03-27T11:50:29.592Z,100839.89
2019-03-27T11:52:58.381Z,100828.06
2019-03-27T11:55:27.097Z,100830.92
2019-03-27T11:57:55.856Z,100821.00
2019-03-27T12:00:24.619Z,100832.94
2019-03-27T12:02:53.351Z,100836.22
2019-03-27T12:05:22.141Z,100844.22
2019-03-27T12:07:50.879Z,100853.44
2019-03-27T12:10:19.597Z,100847.15
2019-03-27T12:12:48.492Z,100834.86
2019-03-27T12:15:20.178Z,100844.05
2019-03-27T12:17:48.992Z,100842.73
2019-03-27T12:20:17.752Z,100848.70
2019-03-27T12:22:57.221Z,100845.17
2019-03-27T12:25:16.957Z,100843.70
2019-03-27T12:27:45.697Z,100851.42
2019-03-27T12:30:14.594Z,100839.61
2019-03-27T12:32:43.323Z,100848.91
2019-03-27T12:35:12.057Z,100847.27
2019-03-27T12:37:40.823Z,100833.91
2019-03-27T12:40:11.734Z,100823.05
2019-03-27T12:42:40.072Z,100814.97
2019-03-27T12:45:09.144Z,100810.95
2019-03-27T12:47:37.877Z,100824.56
2019-03-27T12:50:07.843Z,100816.72
2019-03-27T12:52:36.591Z,100825.03
2019-03-27T12:55:06.481Z,100817.83
2019-03-27T12:57:35.210Z,100821.30
2019-03-27T13:00:05.437Z,100812.19
2019-03-27T13:02:34.212Z,100805.92
2019-03-27T13:05:02.964Z,100804.93
2019-03-27T13:07:31.731Z,100799.42
2019-03-27T13:10:00.578Z,100801.56
2019-03-27T13:12:29.357Z,100803.78
2019-03-27T13:14:58.120Z,100812.19
2019-03-27T13:17:26.862Z,100817.38
2019-03-27T13:19:55.622Z,100801.98
2019-03-27T13:22:24.351Z,100798.04
2019-03-27T13:24:53.137Z,100800.34
2019-03-27T13:27:21.877Z,100797.88
2019-03-27T13:29:50.635Z,100792.34
2019-03-27T13:32:19.378Z,100796.70
2019-03-27T13:34:48.115Z,100794.11
2019-03-27T13:37:16.912Z,100806.33
2019-03-27T13:39:45.635Z,100798.39
2019-03-27T13:42:14.376Z,100796.88
2019-03-27T13:44:43.137Z,100791.66
2019-03-27T13:47:11.994Z,100798.32
2019-03-27T13:49:40.872Z,100791.52
2019-03-27T13:52:09.615Z,100791.07
2019-03-27T13:54:38.344Z,100780.50
2019-03-27T13:57:07.092Z,100785.70
2019-03-27T13:59:35.837Z,100783.27
2019-03-27T14:02:04.659Z,100794.56
2019-03-27T14:04:33.382Z,100787.47
2019-03-27T14:07:02.132Z,100782.41
2019-03-27T14:09:30.889Z,100786.13
2019-03-27T14:11:59.624Z,100795.00
2019-03-27T14:14:28.417Z,100786.25
2019-03-27T14:16:57.181Z,100781.77
2019-03-27T14:19:25.932Z,100781.55
2019-03-27T14:21:55.307Z,100777.08
2019-03-27T14:24:24.147Z,100782.87
2019-03-27T14:26:52.952Z,100782.48
2019-03-27T14:29:21.736Z,100777.58
2019-03-27T14:31:50.538Z,100774.73
2019-03-27T14:34:20.896Z,100769.83
2019-03-27T14:36:49.666Z,100784.59
2019-03-27T14:39:18.458Z,100792.86
2019-03-27T14:41:47.211Z,100787.19
2019-03-27T14:44:15.977Z,100774.88
2019-03-27T14:46:44.751Z,100776.58
2019-03-27T14:49:13.488Z,100792.83
2019-03-27T14:51:42.283Z,100779.78
2019-03-27T14:54:11.017Z,100777.17
2019-03-27T14:56:39.759Z,100780.83
2019-03-27T14:59:08.522Z,100778.00
2019-03-27T15:01:37.264Z,100776.75
2019-03-27T15:04:06.018Z,100783.50
2019-03-27T15:06:34.743Z,100794.67
2019-03-27T15:09:04.873Z,100790.41
2019-03-27T15:11:33.599Z,100791.92
2019-03-27T15:14:02.336Z,100781.66
2019-03-27T15:16:31.111Z,100781.18
2019-03-27T15:18:59.853Z,100786.55
2019-03-27T15:21:28.661Z,100781.23
2019-03-27T15:23:57.410Z,100784.39
2019-03-27T15:26:26.158Z,100781.11
2019-03-27T15:28:55.359Z,100788.47
2019-03-27T15:31:24.396Z,100782.00
2019-03-27T15:33:53.131Z,100770.56
2019-03-27T15:36:21.953Z,100774.84
2019-03-27T15:38:50.716Z,100769.81
2019-03-27T15:41:19.473Z,100767.48
2019-03-27T15:43:48.272Z,100780.42
2019-03-27T15:46:17.044Z,100775.42
2019-03-27T15:48:45.807Z,100779.85
2019-03-27T15:51:14.598Z,100771.41
2019-03-27T15:53:43.356Z,100772.77
2019-03-27T15:56:12.106Z,100774.14
2019-03-27T15:58:40.932Z,100774.38
2019-03-27T16:01:09.816Z,100766.66
2019-03-27T16:03:38.606Z,100777.11
2019-03-27T16:06:07.487Z,100771.34
2019-03-27T16:08:36.286Z,100772.44
2019-03-27T16:11:05.301Z,100778.20
2019-03-27T16:13:34.126Z,100765.08
2019-03-27T16:16:02.905Z,100777.64
2019-03-27T16:18:31.682Z,100776.32
2019-03-27T16:21:00.544Z,100777.95
2019-03-27T16:23:32.190Z,100772.45
2019-03-27T16:25:59.974Z,100785.56
2019-03-27T16:28:28.874Z,100792.16
2019-03-27T16:30:57.689Z,100792.00
2019-03-27T16:33:26.688Z,100796.48
2019-03-27T16:35:55.511Z,100788.00
2019-03-27T16:38:24.309Z,100792.72
2019-03-27T16:40:53.180Z,100799.05
2019-03-27T16:43:22.042Z,100802.84
2019-03-27T16:45:51.155Z,100798.44
2019-03-27T16:48:20.223Z,100796.80
2019-03-27T16:50:49.091Z,100812.12
2019-03-27T16:53:17.919Z,100804.24
2019-03-27T16:55:46.911Z,100822.16
2019-03-27T16:58:15.727Z,100811.59
2019-03-27T17:00:44.503Z,100815.28
2019-03-27T17:03:13.383Z,100824.78
2019-03-27T17:05:53.353Z,100821.69
2019-03-27T17:08:12.891Z,100830.23
2019-03-27T17:10:41.666Z,100828.47
2019-03-27T17:13:10.518Z,100829.48
2019-03-27T17:15:39.529Z,100828.31
2019-03-27T17:18:08.474Z,100829.70
2019-03-27T17:20:37.302Z,100834.20
2019-03-27T17:23:17.546Z,100830.73
2019-03-27T17:25:36.691Z,100837.39
2019-03-27T17:28:07.797Z,100840.89
2019-03-27T17:30:36.597Z,100841.44
2019-03-27T17:33:05.372Z,100844.26
2019-03-27T17:35:35.640Z,100845.12
2019-03-27T17:38:04.586Z,100844.28
2019-03-27T17:40:33.393Z,100845.22
2019-03-27T17:43:02.205Z,100842.78
2019-03-27T17:45:30.993Z,100848.16
2019-03-27T17:47:59.811Z,100850.55
2019-03-27T17:50:28.638Z,100858.13
2019-03-27T17:52:57.457Z,100865.98
2019-03-27T17:55:26.302Z,100870.91
2019-03-27T17:57:55.116Z,100873.18
2019-03-27T18:00:35.560Z,100871.50
2019-03-27T18:03:04.367Z,100874.32
2019-03-27T18:05:33.176Z,100876.48
2019-03-27T18:08:02.099Z,100880.47
2019-03-27T18:10:30.894Z,100880.50
2019-03-27T18:12:59.706Z,100880.83
2019-03-27T18:15:28.533Z,100879.73
2019-03-27T18:17:57.330Z,100886.45
2019-03-27T18:20:26.172Z,100881.81
2019-03-27T18:22:54.971Z,100874.27
2019-03-27T18:25:23.787Z,100873.09
2019-03-27T18:27:52.620Z,100866.38
2019-03-27T18:30:21.533Z,100874.34
2019-03-27T18:32:51.942Z,100875.70
2019-03-27T18:35:20.792Z,100877.91
2019-03-27T18:37:49.566Z,100882.45
2019-03-27T18:40:18.547Z,100884.29
2019-03-27T18:42:47.383Z,100888.88
2019-03-27T18:45:17.913Z,100884.59
2019-03-27T18:47:46.723Z,100888.88
2019-03-27T18:50:15.916Z,100891.77
2019-03-27T18:52:44.711Z,100891.91
2019-03-27T18:55:25.845Z,100901.64
2019-03-27T18:57:44.176Z,100901.69
2019-03-27T19:00:13.453Z,100906.95
2019-03-27T19:02:42.379Z,100893.86
2019-03-27T19:05:11.382Z,100903.47
2019-03-27T19:07:40.195Z,100897.77
2019-03-27T19:10:09.901Z,100897.75
2019-03-27T19:12:38.788Z,100897.31
2019-03-27T19:15:07.863Z,100901.25
2019-03-27T19:17:36.668Z,100899.86
2019-03-27T19:20:08.677Z,100898.45
2019-03-27T19:22:37.728Z,100898.76
2019-03-27T19:25:09.788Z,100897.91
2019-03-27T19:27:38.599Z,100902.72
2019-03-27T19:30:09.543Z,100898.39
2019-03-27T19:32:38.458Z,100896.62
2019-03-27T19:35:07.689Z,100900.08
2019-03-27T19:37:36.571Z,100905.81
2019-03-27T19:40:07.071Z,100907.06
2019-03-27T19:42:35.983Z,100907.11
2019-03-27T19:45:08.847Z,100905.88
2019-03-27T19:47:37.745Z,100906.70
2019-03-27T19:50:07.238Z,100909.34
2019-03-27T19:52:36.111Z,100915.07
2019-03-27T19:55:06.146Z,100918.16
2019-03-27T19:57:35.553Z,100917.25
2019-03-27T20:00:10.542Z,100911.05
2019-03-27T20:02:39.566Z,100911.05
2019-03-27T20:05:08.674Z,100913.38
2019-03-27T20:07:39.766Z,100909.97
2019-03-27T20:10:09.173Z,100915.76
2019-03-27T20:12:38.011Z,100916.14
2019-03-27T20:15:12.753Z,100912.19
2019-03-27T20:17:40.849Z,100913.95
2019-03-27T20:20:10.354Z,100920.19
2019-03-27T20:22:39.206Z,100916.72
2019-03-27T20:25:09.341Z,100921.55
2019-03-27T20:27:38.207Z,100925.05
2019-03-27T20:30:12.829Z,100932.09
2019-03-27T20:32:41.906Z,100921.60
2019-03-27T20:35:10.887Z,100930.37
2019-03-27T20:37:39.656Z,100932.55
2019-03-27T20:40:09.082Z,100930.35
2019-03-27T20:42:37.859Z,100931.22
2019-03-27T20:45:07.486Z,100940.82
2019-03-27T20:47:36.276Z,100932.50
2019-03-27T20:50:07.033Z,100928.13
2019-03-27T20:52:35.831Z,100932.93
2019-03-27T20:55:06.621Z,100942.11
2019-03-27T20:57:35.366Z,100938.63
2019-03-27T21:00:06.092Z,100938.23
2019-03-27T21:02:34.837Z,100939.98
2019-03-27T21:05:04.461Z,100927.31
2019-03-27T21:07:33.226Z,100927.30
2019-03-27T21:10:02.078Z,100924.23
2019-03-27T21:12:30.822Z,100928.59
2019-03-27T21:14:59.646Z,100931.66
2019-03-27T21:17:28.393Z,100930.78
2019-03-27T21:19:57.124Z,100937.35
2019-03-27T21:22:25.952Z,100932.53
2019-03-27T21:25:07.656Z,100931.23
2019-03-27T21:27:25.248Z,100939.09
2019-03-27T21:29:54.046Z,100936.94
2019-03-27T21:32:22.803Z,100928.59
2019-03-27T21:34:51.552Z,100922.04
2019-03-27T21:37:20.641Z,100924.66
2019-03-27T21:39:49.383Z,100925.55
2019-03-27T21:42:18.145Z,100927.28
2019-03-27T21:44:46.941Z,100931.66
2019-03-27T21:47:15.691Z,100932.98
2019-03-27T21:49:44.441Z,100936.92
2019-03-27T21:52:13.226Z,100934.30
2019-03-27T21:54:41.972Z,100931.22
2019-03-27T21:57:10.740Z,100925.11
2019-03-27T21:59:39.587Z,100925.55
2019-03-27T22:02:10.066Z,100929.48
2019-03-27T22:04:38.798Z,100934.30
2019-03-27T22:07:07.983Z,100939.98
2019-03-27T22:09:36.723Z,100933.88
2019-03-27T22:12:05.463Z,100941.28
2019-03-27T22:14:34.222Z,100942.59
2019-03-27T22:17:02.957Z,100936.05
2019-03-27T22:19:31.762Z,100936.92
2019-03-27T22:22:00.487Z,100940.39
2019-03-27T22:24:29.231Z,100939.55
2019-03-27T22:26:57.999Z,100932.52
2019-03-27T22:29:26.730Z,100926.88
2019-03-27T22:31:55.523Z,100937.34
2019-03-27T22:34:24.236Z,100929.48
2019-03-27T22:36:52.971Z,100925.09
2019-03-27T22:39:22.401Z,100926.41
2019-03-27T22:41:51.141Z,100922.04
2019-03-27T22:44:19.908Z,100927.29
2019-03-27T22:46:48.656Z,100925.55
2019-03-27T22:49:17.392Z,100929.04
2019-03-27T22:51:46.166Z,100936.48
2019-03-27T22:54:14.911Z,100933.88
2019-03-27T22:56:43.692Z,100933.84
2019-03-27T22:59:12.427Z,100937.36
2019-03-27T23:01:44.031Z,100935.17
2019-03-27T23:04:12.798Z,100936.92
2019-03-27T23:06:41.532Z,100934.31
2019-03-27T23:09:10.277Z,100931.67
2019-03-27T23:11:39.020Z,100935.62
2019-03-27T23:14:07.759Z,100938.66
2019-03-27T23:16:36.525Z,100932.98
2019-03-27T23:19:05.259Z,100933.39
2019-03-27T23:21:34.022Z,100936.88
2019-03-27T23:24:02.751Z,100933.34
2019-03-27T23:26:31.531Z,100939.90
2019-03-27T23:29:00.261Z,100933.79
2019-03-27T23:31:28.983Z,100939.03
2019-03-27T23:34:00.373Z,100944.72
2019-03-27T23:36:28.209Z,100936.86
2019-03-27T23:38:56.974Z,100932.48
2019-03-27T23:41:25.687Z,100933.36
2019-03-27T23:43:54.423Z,100938.62
2019-03-27T23:46:23.176Z,100935.99
2019-03-27T23:48:51.916Z,100935.11
2019-03-27T23:51:20.699Z,100927.22
2019-03-27T23:53:49.426Z,100926.31
2019-03-27T23:56:18.168Z,100924.13
2019-03-27T23:58:46.935Z,100917.98
